Data for 01/31/2013

Time Sea-Level Adjusted Pressure Absolute Pressure Temperature Relative Humidity Dew Point   
(mb) (inHg) (mb) (inHg) (C) (F) (%) (C) (F)
00:05 1017 30.03 846 24.98 0.6 33.2 70 -4.2 24.4
00:10 1017 30.03 846 24.98 0.7 33.2 69 -4.3 24.2
00:15 1017 30.03 846 24.98 0.7 33.3 69 -4.3 24.2
00:20 1017 30.03 846 24.98 0.9 33.5 68 -4.4 24
00:25 1017 30.03 847 25.01 0.8 33.5 69 -4.2 24.4
00:30 1017 30.03 847 25.01 0.8 33.4 69 -4.3 24.2
00:35 1017 30.03 847 25.01 0.8 33.4 69 -4.3 24.3
00:40 1017 30.03 847 25.01 0.7 33.3 70 -4.1 24.5
00:45 1017 30.03 847 25.01 0.7 33.2 69 -4.3 24.3
00:50 1017 30.03 847 25.01 0.7 33.2 70 -4.2 24.4
00:55 1017 30.03 847 25.01 0.6 33.1 69 -4.3 24.2
01:00 1017 30.03 847 25.01 0.6 33.1 70 -4.3 24.3
01:05 1017 30.03 847 25.01 0.7 33.2 69 -4.3 24.2
01:10 1017 30.03 847 25.01 0.7 33.2 69 -4.4 24
01:15 1017 30.03 847 25.01 0.7 33.3 68 -4.5 23.8
01:20 1017 30.03 846 24.98 0.6 33.2 69 -4.4 24.1
01:25 1017 30.03 846 24.98 0.3 32.5 73 -4 24.8
01:30 1017 30.03 846 24.98 0.1 32.1 72 -4.3 24.2
01:35 1017 30.03 846 24.98 0 32 73 -4.2 24.4
01:40 1017 30.03 846 24.98 -0.1 31.8 74 -4.3 24.3
01:45 1017 30.03 846 24.98 -0.1 31.9 72 -4.6 23.8
01:50 1017 30.03 847 25.01 0.1 32.1 73 -4.3 24.3
01:55 1017 30.03 847 25.01 0 32 74 -4.2 24.5
02:00 1017 30.03 847 25.01 -0.1 31.9 73 -4.4 24.1
02:05 1017 30.03 847 25.01 -0 31.9 72 -4.5 23.9
02:10 1017 30.03 847 25.01 0.1 32.1 70 -4.8 23.3
02:15 1017 30.03 847 25.01 0.3 32.6 69 -4.6 23.7
02:20 1017 30.03 847 25.01 0.3 32.6 69 -4.6 23.7
02:25 1017 30.03 847 25.01 0.4 32.7 69 -4.7 23.5
02:30 1017 30.03 847 25.01 0.5 32.8 68 -4.8 23.4
02:35 1017 30.03 847 25.01 0.5 32.9 68 -4.7 23.6
02:40 1017 30.03 847 25.01 0.5 32.9 68 -4.7 23.5
02:45 1017 30.03 847 25.01 0.5 32.9 68 -4.7 23.5
02:50 1017 30.03 847 25.01 0.6 33.1 67 -4.8 23.4
02:55 1018 30.06 847 25.01 0.7 33.3 67 -4.6 23.7
03:00 1017 30.03 847 25.01 0.7 33.2 68 -4.6 23.7
03:05 1018 30.06 847 25.01 0.6 33.1 68 -4.5 23.9
03:10 1018 30.06 847 25.01 0.6 33.1 69 -4.5 23.8
03:15 1018 30.06 847 25.01 0.6 33.1 68 -4.6 23.7
03:20 1018 30.06 847 25.01 0.6 33.2 68 -4.5 23.8
03:25 1018 30.06 847 25.01 0.6 33.1 69 -4.4 24
03:30 1018 30.06 847 25.01 0.6 33.2 68 -4.6 23.8
03:35 1018 30.06 847 25.01 0.7 33.2 68 -4.6 23.8
03:40 1018 30.06 847 25.01 0.8 33.4 67 -4.6 23.8
03:45 1018 30.06 847 25.01 0.7 33.3 68 -4.5 23.9
03:50 1018 30.06 847 25.01 0.7 33.3 68 -4.4 24
03:55 1018 30.06 847 25.01 0.8 33.4 67 -4.6 23.7
04:00 1018 30.06 847 25.01 0.8 33.5 66 -4.8 23.3
04:05 1018 30.06 847 25.01 0.9 33.6 67 -4.6 23.8
04:10 1018 30.06 847 25.01 0.8 33.4 67 -4.7 23.6
04:15 1018 30.06 847 25.01 0.8 33.5 66 -4.8 23.4
04:20 1018 30.06 847 25.01 1 33.7 66 -4.8 23.4
04:25 1018 30.06 847 25.01 0.9 33.7 66 -4.7 23.5
04:30 1018 30.06 847 25.01 0.9 33.7 67 -4.6 23.7
04:35 1018 30.06 847 25.01 0.9 33.6 66 -4.7 23.6
04:40 1018 30.06 847 25.01 0.9 33.6 64 -5.2 22.6
04:45 1018 30.06 847 25.01 1.2 34.1 62 -5.3 22.5
04:50 1018 30.06 847 25.01 1.3 34.4 62 -5.2 22.6
04:55 1018 30.06 847 25.01 1.4 34.5 61 -5.3 22.5
05:00 1018 30.06 847 25.01 1.5 34.7 61 -5.2 22.6
05:05 1018 30.06 847 25.01 1.4 34.6 61 -5.3 22.5
05:10 1018 30.06 847 25.01 1.4 34.6 61 -5.2 22.6
05:15 1018 30.06 847 25.01 1.4 34.5 61 -5.2 22.6
05:20 1018 30.06 847 25.01 1.4 34.4 62 -5.2 22.7
05:25 1018 30.06 848 25.04 1.3 34.4 62 -5.1 22.8
05:30 1018 30.06 848 25.04 1.2 34.2 64 -4.9 23.2
05:35 1018 30.06 848 25.04 1.1 34 66 -4.6 23.6
05:40 1018 30.06 848 25.04 0.9 33.6 65 -5 23
05:45 1018 30.06 848 25.04 1 33.8 65 -4.9 23.2
05:50 1019 30.09 848 25.04 0.9 33.5 65 -5 23.1
05:55 1019 30.09 848 25.04 0.8 33.5 65 -5 23
06:00 1019 30.09 848 25.04 0.8 33.5 66 -4.8 23.4
06:05 1019 30.09 848 25.04 0.7 33.3 66 -4.9 23.2
06:10 1019 30.09 848 25.04 0.7 33.3 66 -4.9 23.2
06:15 1019 30.09 848 25.04 0.7 33.3 66 -4.9 23.2
06:20 1019 30.09 848 25.04 0.8 33.4 65 -5 23
06:25 1019 30.09 848 25.04 0.9 33.5 65 -5 23
06:30 1019 30.09 848 25.04 0.9 33.6 66 -4.9 23.3
06:35 1019 30.09 848 25.04 0.9 33.6 65 -4.9 23.1
06:40 1019 30.09 848 25.04 0.9 33.6 65 -5.1 22.9
06:45 1019 30.09 848 25.04 0.9 33.6 65 -4.9 23.1
06:50 1019 30.09 848 25.04 0.8 33.5 65 -5 23
06:55 1019 30.09 848 25.04 0.8 33.5 65 -5 23
07:00 1019 30.09 848 25.04 0.8 33.5 65 -5.1 22.9
07:05 1019 30.09 848 25.04 0.8 33.4 65 -5 23.1
07:10 1019 30.09 848 25.04 0.8 33.5 65 -5 23
07:15 1019 30.09 848 25.04 0.8 33.5 65 -5 23
07:20 1019 30.09 848 25.04 0.8 33.5 65 -5 23
07:25 1019 30.09 848 25.04 0.9 33.5 64 -5.1 22.7
07:30 1019 30.09 848 25.04 0.9 33.6 64 -5.1 22.8
07:35 1019 30.09 848 25.04 0.9 33.6 64 -5.2 22.6
07:40 1019 30.09 848 25.04 0.9 33.5 65 -5.1 22.9
07:45 1019 30.09 848 25.04 0.7 33.2 65 -5.1 22.8
07:50 1019 30.09 848 25.04 0.6 33.1 66 -5.1 22.9
07:55 1019 30.09 848 25.04 0.5 33 66 -5 23
08:00 1019 30.09 848 25.04 0.6 33.1 65 -5.2 22.7
08:05 1019 30.09 848 25.04 0.7 33.3 64 -5.4 22.2
08:10 1019 30.09 848 25.04 0.9 33.5 63 -5.3 22.4
08:15 1019 30.09 848 25.04 0.9 33.5 63 -5.5 22.1
08:20 1019 30.09 848 25.04 1 33.8 62 -5.4 22.3
08:25 1019 30.09 848 25.04 1 33.9 63 -5.2 22.6
08:30 1019 30.09 848 25.04 1.1 34 61 -5.5 22.1
08:35 1019 30.09 848 25.04 1.2 34.1 61 -5.6 22
08:40 1019 30.09 848 25.04 1.2 34.2 60 -5.7 21.7
08:45 1019 30.09 849 25.07 1.3 34.3 60 -5.6 21.9
08:50 1019 30.09 849 25.07 1.4 34.4 58 -5.9 21.3
08:55 1019 30.09 849 25.07 1.5 34.7 58 -5.9 21.4
09:00 1019 30.09 849 25.07 1.6 35 56 -6.2 20.8
09:05 1019 30.09 849 25.07 1.9 35.4 54 -6.4 20.4
09:10 1019 30.09 849 25.07 2 35.6 55 -6.1 21.1
09:15 1020 30.12 849 25.07 2 35.5 56 -6 21.2
09:20 1020 30.12 849 25.07 1.9 35.5 56 -5.9 21.4
09:25 1020 30.12 849 25.07 1.7 35.1 57 -5.9 21.3
09:30 1020 30.12 849 25.07 1.7 35.1 57 -6 21.3
09:35 1020 30.12 849 25.07 1.7 35.1 58 -5.6 22
09:40 1020 30.12 849 25.07 1.7 35 58 -5.8 21.6
09:45 1020 30.12 849 25.07 1.7 35.1 59 -5.4 22.2
09:50 1020 30.12 849 25.07 1.7 35.1 60 -5.3 22.4
09:55 1020 30.12 849 25.07 1.7 35.1 58 -5.7 21.8
10:00 1020 30.12 849 25.07 1.8 35.2 59 -5.4 22.3
10:05 1020 30.12 849 25.07 1.8 35.3 59 -5.4 22.2
10:10 1020 30.12 849 25.07 1.9 35.4 61 -4.9 23.2
10:15 1020 30.12 849 25.07 1.9 35.4 61 -4.8 23.4
10:20 1020 30.12 849 25.07 2 35.6 60 -4.9 23.1
10:25 1020 30.12 849 25.07 2.1 35.7 61 -4.7 23.5
10:30 1020 30.12 849 25.07 2 35.6 61 -4.7 23.5
10:35 1020 30.12 849 25.07 2 35.6 61 -4.8 23.3
10:40 1020 30.12 849 25.07 2 35.7 60 -4.9 23.1
10:45 1020 30.12 849 25.07 2.2 35.9 59 -5.1 22.9
10:50 1020 30.12 849 25.07 2.2 35.9 59 -4.9 23.1
10:55 1020 30.12 849 25.07 2.1 35.8 59 -5 23
11:00 1020 30.12 849 25.07 2.2 36 59 -5 23
11:05 1020 30.12 849 25.07 2.3 36.2 59 -4.9 23.2
11:10 1020 30.12 849 25.07 2.3 36.2 58 -5 23
11:15 1020 30.12 849 25.07 2.3 36.2 59 -4.8 23.4
11:20 1020 30.12 850 25.1 2.3 36.1 59 -4.8 23.3
11:25 1020 30.12 850 25.1 2.4 36.3 60 -4.7 23.6
11:30 1020 30.12 850 25.1 2.5 36.5 58 -4.8 23.3
11:35 1020 30.12 850 25.1 2.7 36.9 61 -4.1 24.6
11:40 1020 30.12 850 25.1 2.7 36.8 62 -4 24.8
11:45 1020 30.12 850 25.1 2.5 36.5 62 -4.1 24.7
11:50 1020 30.12 850 25.1 2.5 36.6 62 -4.1 24.7
11:55 1020 30.12 850 25.1 2.6 36.7 62 -4 24.8
12:00 1020 30.12 850 25.1 2.6 36.6 60 -4.4 24
12:05 1020 30.12 850 25.1 2.7 36.9 59 -4.6 23.8
12:10 1020 30.12 850 25.1 2.9 37.2 59 -4.3 24.2
12:15 1020 30.12 850 25.1 3 37.5 60 -4.1 24.6
12:20 1020 30.12 850 25.1 3 37.4 60 -3.9 25
12:25 1020 30.12 850 25.1 3.1 37.5 61 -3.8 25.1
12:30 1020 30.12 850 25.1 3.2 37.8 60 -3.9 25
12:35 1020 30.12 849 25.07 3.1 37.5 60 -3.9 25
12:40 1020 30.12 849 25.07 3.2 37.7 61 -3.7 25.3
12:45 1020 30.12 849 25.07 3.4 38.1 58 -4.1 24.6
12:50 1020 30.12 849 25.07 3.6 38.4 59 -3.7 25.3
12:55 1020 30.12 849 25.07 3.7 38.6 61 -3.2 26.2
13:00 1020 30.12 849 25.07 3.7 38.6 60 -3.5 25.8
13:05 1020 30.12 849 25.07 3.2 37.8 62 -3.4 25.8
13:10 1020 30.12 849 25.07 3.1 37.6 61 -3.7 25.4
13:15 1020 30.12 849 25.07 3.3 37.9 58 -4.2 24.4
13:20 1020 30.12 849 25.07 3.5 38.3 58 -3.9 25
13:25 1020 30.12 849 25.07 3.7 38.7 59 -3.6 25.6
13:30 1020 30.12 849 25.07 3.7 38.6 59 -3.6 25.5
13:35 1020 30.12 849 25.07 3.6 38.4 59 -3.7 25.4
13:40 1020 30.12 849 25.07 3.7 38.7 59 -3.5 25.6
13:45 1020 30.12 849 25.07 3.8 38.9 58 -3.6 25.5
13:50 1020 30.12 849 25.07 3.8 38.9 58 -3.7 25.4
13:55 1020 30.12 849 25.07 3.8 38.8 58 -3.7 25.3
14:00 1020 30.12 849 25.07 3.8 38.9 58 -3.6 25.5
14:05 1020 30.12 849 25.07 3.7 38.7 60 -3.4 25.9
14:10 1020 30.12 849 25.07 3.5 38.3 58 -4 24.8
14:15 1020 30.12 849 25.07 3.7 38.6 57 -4.1 24.5
14:20 1020 30.12 849 25.07 3.9 39 56 -4.1 24.6
14:25 1020 30.12 849 25.07 4.1 39.5 54 -4.3 24.2
14:30 1020 30.12 849 25.07 4.2 39.6 54 -4.2 24.4
14:35 1019 30.09 849 25.07 4.2 39.5 54 -4.2 24.4
14:40 1019 30.09 849 25.07 4.3 39.7 54 -4.3 24.3
14:45 1019 30.09 849 25.07 4.3 39.7 54 -4.3 24.3
14:50 1019 30.09 849 25.07 4.3 39.8 55 -4 24.8
14:55 1019 30.09 849 25.07 4.5 40 53 -4.3 24.3
15:00 1019 30.09 848 25.04 4.4 39.9 52 -4.7 23.6
15:05 1019 30.09 848 25.04 4.5 40.1 52 -4.6 23.7
15:10 1019 30.09 848 25.04 4.6 40.3 52 -4.3 24.2
15:15 1019 30.09 848 25.04 4.7 40.5 51 -4.6 23.7
15:20 1019 30.09 848 25.04 4.7 40.5 51 -4.5 23.9
15:25 1019 30.09 848 25.04 4.6 40.2 51 -4.8 23.4
15:30 1019 30.09 848 25.04 4.4 40 50 -5.1 22.8
15:35 1019 30.09 848 25.04 4.5 40 51 -4.7 23.5
15:40 1019 30.09 848 25.04 4.4 40 50 -5.1 22.8
15:45 1019 30.09 848 25.04 4.6 40.2 48 -5.4 22.2
15:50 1019 30.09 848 25.04 4.7 40.4 48 -5.4 22.4
15:55 1019 30.09 848 25.04 4.7 40.4 48 -5.4 22.4
16:00 1019 30.09 848 25.04 4.7 40.5 49 -5 23
16:05 1019 30.09 848 25.04 4.7 40.4 51 -4.6 23.7
16:10 1019 30.09 849 25.07 4.5 40.1 52 -4.6 23.7
16:15 1019 30.09 849 25.07 4.6 40.3 51 -4.6 23.8
16:20 1019 30.09 849 25.07 4.5 40.2 52 -4.4 24.1
16:25 1019 30.09 849 25.07 4.5 40.1 51 -4.7 23.6
16:30 1019 30.09 849 25.07 4.5 40.1 53 -4.3 24.3
16:35 1019 30.09 849 25.07 4.3 39.7 55 -4.1 24.6
16:40 1019 30.09 849 25.07 4 39.3 56 -3.9 25
16:45 1019 30.09 849 25.07 3.8 38.8 57 -3.9 25
16:50 1019 30.09 849 25.07 3.8 38.8 56 -4.2 24.5
16:55 1019 30.09 849 25.07 3.9 39.1 56 -3.9 24.9
17:00 1019 30.09 849 25.07 3.9 39 57 -3.9 24.9
17:05 1019 30.09 849 25.07 4 39.1 56 -4 24.8
17:10 1019 30.09 849 25.07 4 39.3 57 -3.8 25.2
17:15 1019 30.09 849 25.07 4 39.1 57 -3.8 25.2
17:20 1019 30.09 849 25.07 4 39.1 57 -3.8 25.2
17:25 1019 30.09 849 25.07 3.9 39 57 -3.7 25.3
17:30 1019 30.09 849 25.07 3.9 39 58 -3.7 25.4
17:35 1019 30.09 849 25.07 4 39.2 56 -4 24.7
17:40 1019 30.09 849 25.07 4 39.1 58 -3.7 25.4
17:45 1019 30.09 849 25.07 3.9 39 57 -3.8 25.2
17:50 1019 30.09 849 25.07 3.9 39 57 -3.8 25.2
17:55 1019 30.09 849 25.07 3.8 38.8 60 -3.3 26.1
18:00 1019 30.09 849 25.07 3.6 38.5 60 -3.5 25.8
18:05 1019 30.09 849 25.07 3.7 38.7 59 -3.5 25.7
18:10 1019 30.09 848 25.04 3.7 38.6 59 -3.5 25.7
18:15 1019 30.09 848 25.04 3.7 38.7 58 -3.7 25.3
18:20 1019 30.09 848 25.04 3.9 38.9 55 -4.3 24.3
18:25 1019 30.09 848 25.04 4 39.1 57 -3.8 25.2
18:30 1019 30.09 848 25.04 3.9 38.9 58 -3.6 25.4
18:35 1019 30.09 848 25.04 3.8 38.9 56 -4.1 24.5
18:40 1019 30.09 848 25.04 3.9 39.1 56 -4 24.8
18:45 1019 30.09 848 25.04 3.9 39.1 56 -4 24.8
18:50 1019 30.09 848 25.04 3.9 39 57 -3.8 25.1
18:55 1019 30.09 848 25.04 3.7 38.7 59 -3.7 25.4
19:00 1019 30.09 848 25.04 3.6 38.5 59 -3.7 25.4
19:05 1019 30.09 848 25.04 3.6 38.5 60 -3.5 25.8
19:10 1019 30.09 848 25.04 3.6 38.5 58 -3.8 25.1
19:15 1019 30.09 848 25.04 3.6 38.4 61 -3.3 26
19:20 1019 30.09 848 25.04 3.4 38.2 61 -3.5 25.7
19:25 1019 30.09 848 25.04 3.3 38 61 -3.4 25.8
19:30 1019 30.09 848 25.04 3.2 37.8 62 -3.3 26
19:35 1019 30.09 848 25.04 3.1 37.6 63 -3.2 26.2
19:40 1019 30.09 848 25.04 3.1 37.5 63 -3.3 26
19:45 1019 30.09 848 25.04 3 37.5 62 -3.6 25.5
19:50 1019 30.09 848 25.04 3.1 37.7 61 -3.6 25.4
19:55 1019 30.09 848 25.04 3.2 37.8 61 -3.5 25.6
20:00 1019 30.09 849 25.07 3.2 37.7 62 -3.4 25.9
20:05 1019 30.09 849 25.07 3.1 37.5 62 -3.5 25.7
20:10 1019 30.09 849 25.07 3.1 37.5 62 -3.4 25.8
20:15 1019 30.09 849 25.07 3.1 37.5 63 -3.3 26.1
20:20 1019 30.09 849 25.07 3 37.4 63 -3.3 26
20:25 1020 30.12 849 25.07 2.9 37.3 64 -3.3 26.1
20:30 1020 30.12 849 25.07 2.8 37.1 63 -3.6 25.6
20:35 1019 30.09 849 25.07 3.1 37.6 60 -4 24.8
20:40 1020 30.12 849 25.07 3.3 38 60 -3.7 25.4
20:45 1020 30.12 849 25.07 3.3 38 60 -3.6 25.5
20:50 1019 30.09 849 25.07 3.3 37.9 60 -3.7 25.3
20:55 1019 30.09 849 25.07 3.3 37.9 60 -3.7 25.4
21:00 1019 30.09 849 25.07 3.2 37.8 60 -3.7 25.3
21:05 1019 30.09 849 25.07 3.3 37.9 60 -3.8 25.2
21:10 1019 30.09 849 25.07 3.3 37.9 60 -3.7 25.3
21:15 1019 30.09 849 25.07 3.2 37.8 61 -3.6 25.4
21:20 1019 30.09 848 25.04 3.1 37.7 62 -3.4 25.8
21:25 1019 30.09 848 25.04 3.1 37.5 62 -3.5 25.6
21:30 1019 30.09 848 25.04 3.1 37.6 61 -3.7 25.3
21:35 1019 30.09 848 25.04 3.2 37.8 61 -3.6 25.5
21:40 1019 30.09 848 25.04 3.3 37.9 60 -3.7 25.4
21:45 1019 30.09 848 25.04 3.3 37.9 61 -3.5 25.6
21:50 1019 30.09 848 25.04 3.2 37.8 61 -3.6 25.6
21:55 1019 30.09 848 25.04 3.2 37.7 61 -3.6 25.6
22:00 1019 30.09 848 25.04 3.2 37.7 62 -3.4 25.8
22:05 1019 30.09 848 25.04 3.2 37.8 61 -3.5 25.6
22:10 1019 30.09 848 25.04 3.2 37.8 61 -3.5 25.6
22:15 1019 30.09 848 25.04 3.2 37.8 62 -3.3 26
22:20 1019 30.09 848 25.04 3.1 37.6 61 -3.6 25.5
22:25 1019 30.09 848 25.04 3.2 37.7 61 -3.6 25.5
22:30 1019 30.09 848 25.04 3.1 37.6 61 -3.6 25.6
22:35 1019 30.09 848 25.04 3.1 37.5 62 -3.5 25.7
22:40 1019 30.09 848 25.04 3 37.3 63 -3.4 25.9
22:45 1019 30.09 848 25.04 2.9 37.2 62 -3.6 25.6
22:50 1019 30.09 848 25.04 3 37.4 61 -3.7 25.3
22:55 1019 30.09 848 25.04 3.1 37.5 59 -4.1 24.7
23:00 1019 30.09 848 25.04 3.2 37.7 60 -3.9 25.1
23:05 1019 30.09 848 25.04 3.1 37.7 60 -3.9 25.1
23:10 1019 30.09 848 25.04 3.1 37.5 60 -3.9 25.1
23:15 1019 30.09 848 25.04 3 37.4 60 -4 24.9
23:20 1019 30.09 848 25.04 3 37.4 60 -4 24.7
23:25 1019 30.09 848 25.04 2.9 37.3 60 -4.1 24.7
23:30 1019 30.09 848 25.04 3 37.4 60 -4.1 24.7
23:35 1019 30.09 848 25.04 2.9 37.3 59 -4.2 24.4
23:40 1019 30.09 848 25.04 2.9 37.2 59 -4.4 24.2
23:45 1019 30.09 848 25.04 3 37.5 58 -4.4 24.2
23:50 1019 30.09 848 25.04 3.2 37.7 58 -4.3 24.3
23:55 1019 30.09 848 25.04 3.2 37.8 59 -4.1 24.7
24:00 1019 30.09 848 25.04 3.2 37.7 58 -4.4 24.1